LFBY 181530Z AUTO 30008KT 250V340 //// // ////// 23/16 Q1018

ElémentsDécodage
LFBY Station météo située sur l'aérodrome de DAX Seyresse
181530Z émis le 18 du mois à 15h30 UTC
AUTO Bulletin édité par un automate
30008KT vent du 300°, 08 noeuds
250V340 vent de direction variable entre 250° et 340°
//// visibilité horizontale non disponible
// élement non décodé
////// nébulosité (type et hauteur) non disponible
 type de nuage non observable
23/16 température 23°C, point de rosée 16°C
 soit une humidité relative de 65%
Q1018 la pression au niveau de la mer (QNH) est de 1018 hPa